PWSweather.com
Personal Weather Stations
Station Observations
WD4JKH
Forsyth, GA 31029

Forsyth, GA 31029

Lat: 33.033225, Lon: -83.927995

Elevation: 709

Station Type: Davis Vantage VUE

High Low Average
Temperature 66.1°F18.9°C 59.6°F15.3°C 61.6°F16.4°C
Dew Point 62.0°F16.7°C 58.4°F14.7°C 59.6°F15.3°C
Winds 6.7 mph 10.8 kmh Calm Calm 3.0 mph ENE4.8 kmh ENE
Wind Gusts 11.0 mph17.7 kmh 2.0 mph3.2 kmh 7.0 mph11.3 kmh
Humidity 96% 86% 93%
Pressure 30.18 in1022.0 mb 30.08 in1018.6 mb -
Precipitation 0.00 in0.0 mm - -
Hour Temp Dew Point Humidity Winds Wind Gusts Pressure Precip Precip Rate Daily Precip Total
12:03 AM 63.7°F17.6°C 60.1°F15.6°C 88% 2.1 mph NE3.4 kmh NE 3.0 mph4.8 kmh 30.10 in1019.3 mb 0.00 in0.0 mm 0.00 in0.0 mm 0.00 in0.0 mm
12:08 AM 63.7°F17.6°C 60.1°F15.6°C 88% Calm Calm 3.0 mph4.8 kmh 30.10 in1019.3 mb 0.00 in0.0 mm 0.00 in0.0 mm 0.00 in0.0 mm
12:13 AM 63.6°F17.6°C 60.0°F15.6°C 88% 1.1 mph NE1.8 kmh NE 3.0 mph4.8 kmh 30.10 in1019.3 mb 0.00 in0.0 mm 0.00 in0.0 mm 0.00 in0.0 mm
12:18 AM 63.5°F17.5°C 59.9°F15.5°C 88% 1.0 mph ENE1.6 kmh ENE 3.0 mph4.8 kmh 30.10 in1019.3 mb 0.00 in0.0 mm 0.00 in0.0 mm 0.00 in0.0 mm
12:23 AM 63.4°F17.4°C 60.1°F15.6°C 89% 1.8 mph ENE2.9 kmh ENE 3.0 mph4.8 kmh 30.10 in1019.3 mb 0.00 in0.0 mm 0.00 in0.0 mm 0.00 in0.0 mm
12:28 AM 63.2°F17.3°C 59.9°F15.5°C 89% 1.6 mph ENE2.6 kmh ENE 3.0 mph4.8 kmh 30.10 in1019.3 mb 0.00 in0.0 mm 0.00 in0.0 mm 0.00 in0.0 mm
12:33 AM 63.0°F17.2°C 59.7°F15.4°C 89% 1.0 mph ENE1.6 kmh ENE 3.0 mph4.8 kmh 30.10 in1019.3 mb 0.00 in0.0 mm 0.00 in0.0 mm 0.00 in0.0 mm
12:38 AM 62.8°F17.1°C 59.5°F15.3°C 89% Calm Calm 3.0 mph4.8 kmh 30.10 in1019.3 mb 0.00 in0.0 mm 0.00 in0.0 mm 0.00 in0.0 mm
12:43 AM 62.7°F17.1°C 59.7°F15.4°C 90% 1.4 mph NE2.3 kmh NE 3.0 mph4.8 kmh 30.10 in1019.3 mb 0.00 in0.0 mm 0.00 in0.0 mm 0.00 in0.0 mm
12:47 AM 62.6°F17.0°C 59.6°F15.3°C 90% 1.0 mph NE1.6 kmh NE 3.0 mph4.8 kmh 30.10 in1019.3 mb 0.00 in0.0 mm 0.00 in0.0 mm 0.00 in0.0 mm
12:52 AM 62.6°F17.0°C 59.6°F15.3°C 90% 1.2 mph NE1.9 kmh NE 3.0 mph4.8 kmh 30.11 in1019.6 mb 0.00 in0.0 mm 0.00 in0.0 mm 0.00 in0.0 mm
12:57 AM 62.6°F17.0°C 59.6°F15.3°C 90% 1.8 mph NE2.9 kmh NE 3.0 mph4.8 kmh 30.11 in1019.6 mb 0.00 in0.0 mm 0.00 in0.0 mm 0.00 in0.0 mm
01:02 AM 62.5°F16.9°C 59.5°F15.3°C 90% 1.0 mph NE1.6 kmh NE 3.0 mph4.8 kmh 30.11 in1019.6 mb 0.00 in0.0 mm 0.00 in0.0 mm 0.00 in0.0 mm
01:07 AM 62.5°F16.9°C 59.8°F15.4°C 91% 1.8 mph NE2.9 kmh NE 3.0 mph4.8 kmh 30.11 in1019.6 mb 0.00 in0.0 mm 0.00 in0.0 mm 0.00 in0.0 mm
01:12 AM 62.4°F16.9°C 59.7°F15.4°C 91% 1.7 mph NE2.7 kmh NE 4.0 mph6.4 kmh 30.10 in1019.3 mb 0.00 in0.0 mm 0.00 in0.0 mm 0.00 in0.0 mm
01:17 AM 62.3°F16.8°C 59.6°F15.3°C 91% 1.9 mph NE3.1 kmh NE 4.0 mph6.4 kmh 30.10 in1019.3 mb 0.00 in0.0 mm 0.00 in0.0 mm 0.00 in0.0 mm
01:22 AM 62.2°F16.8°C 59.5°F15.3°C 91% 2.1 mph NE3.4 kmh NE 4.0 mph6.4 kmh 30.10 in1019.3 mb 0.00 in0.0 mm 0.00 in0.0 mm 0.00 in0.0 mm
01:27 AM 62.2°F16.8°C 59.5°F15.3°C 91% 1.7 mph NE2.7 kmh NE 4.0 mph6.4 kmh 30.10 in1019.3 mb 0.00 in0.0 mm 0.00 in0.0 mm 0.00 in0.0 mm
01:32 AM 62.1°F16.7°C 59.4°F15.2°C 91% 2.4 mph ENE3.9 kmh ENE 5.0 mph8.0 kmh 30.10 in1019.3 mb 0.00 in0.0 mm 0.00 in0.0 mm 0.00 in0.0 mm
01:37 AM 62.1°F16.7°C 59.7°F15.4°C 92% 2.4 mph ENE3.9 kmh ENE 5.0 mph8.0 kmh 30.10 in1019.3 mb 0.00 in0.0 mm 0.00 in0.0 mm 0.00 in0.0 mm
01:42 AM 62.0°F16.7°C 59.6°F15.3°C 92% 2.1 mph NE3.4 kmh NE 5.0 mph8.0 kmh 30.10 in1019.3 mb 0.00 in0.0 mm 0.00 in0.0 mm 0.00 in0.0 mm
01:47 AM 62.0°F16.7°C 59.6°F15.3°C 92% 2.9 mph NE4.7 kmh NE 6.0 mph9.7 kmh 30.10 in1019.3 mb 0.00 in0.0 mm 0.00 in0.0 mm 0.00 in0.0 mm
01:52 AM 61.9°F16.6°C 59.5°F15.3°C 92% 2.5 mph NE4.0 kmh NE 6.0 mph9.7 kmh 30.09 in1019.0 mb 0.00 in0.0 mm 0.00 in0.0 mm 0.00 in0.0 mm
01:57 AM 61.8°F16.6°C 59.4°F15.2°C 92% 1.1 mph NE1.8 kmh NE 6.0 mph9.7 kmh 30.09 in1019.0 mb 0.00 in0.0 mm 0.00 in0.0 mm 0.00 in0.0 mm
02:02 AM 61.7°F16.5°C 59.3°F15.2°C 92% 2.7 mph ENE4.3 kmh ENE 6.0 mph9.7 kmh 30.09 in1019.0 mb 0.00 in0.0 mm 0.00 in0.0 mm 0.00 in0.0 mm
02:07 AM 61.8°F16.6°C 59.4°F15.2°C 92% 1.9 mph E3.1 kmh E 6.0 mph9.7 kmh 30.09 in1019.0 mb 0.00 in0.0 mm 0.00 in0.0 mm 0.00 in0.0 mm
02:12 AM 61.8°F16.6°C 59.4°F15.2°C 92% 1.3 mph NE2.1 kmh NE 6.0 mph9.7 kmh 30.09 in1019.0 mb 0.00 in0.0 mm 0.00 in0.0 mm 0.00 in0.0 mm
02:17 AM 61.8°F16.6°C 59.7°F15.4°C 93% 1.3 mph ENE2.1 kmh ENE 6.0 mph9.7 kmh 30.09 in1019.0 mb 0.00 in0.0 mm 0.00 in0.0 mm 0.00 in0.0 mm
02:22 AM 61.8°F16.6°C 59.8°F15.4°C 93% 1.5 mph NE2.4 kmh NE 4.0 mph6.4 kmh 30.09 in1019.0 mb 0.00 in0.0 mm 0.00 in0.0 mm 0.00 in0.0 mm
02:27 AM 61.7°F16.5°C 59.7°F15.4°C 93% 2.6 mph NE4.2 kmh NE 5.0 mph8.0 kmh 30.09 in1019.0 mb 0.00 in0.0 mm 0.00 in0.0 mm 0.00 in0.0 mm
02:32 AM 61.7°F16.5°C 59.6°F15.3°C 93% 2.1 mph ENE3.4 kmh ENE 5.0 mph8.0 kmh 30.09 in1019.0 mb 0.00 in0.0 mm 0.00 in0.0 mm 0.00 in0.0 mm
02:37 AM 61.6°F16.4°C 59.5°F15.3°C 93% 1.8 mph ESE2.9 kmh ESE 5.0 mph8.0 kmh 30.09 in1019.0 mb 0.00 in0.0 mm 0.00 in0.0 mm 0.00 in0.0 mm
02:42 AM 61.6°F16.4°C 59.5°F15.3°C 93% 2.0 mph E3.2 kmh E 5.0 mph8.0 kmh 30.09 in1019.0 mb 0.00 in0.0 mm 0.00 in0.0 mm 0.00 in0.0 mm
02:47 AM 61.5°F16.4°C 59.4°F15.2°C 93% 1.9 mph E3.1 kmh E 5.0 mph8.0 kmh 30.09 in1019.0 mb 0.00 in0.0 mm 0.00 in0.0 mm 0.00 in0.0 mm
02:52 AM 61.5°F16.4°C 59.4°F15.2°C 93% 1.2 mph E1.9 kmh E 5.0 mph8.0 kmh 30.09 in1019.0 mb 0.00 in0.0 mm 0.00 in0.0 mm 0.00 in0.0 mm
02:57 AM 61.4°F16.3°C 59.3°F15.2°C 93% 1.5 mph E2.4 kmh E 4.0 mph6.4 kmh 30.09 in1019.0 mb 0.00 in0.0 mm 0.00 in0.0 mm 0.00 in0.0 mm
03:02 AM 61.3°F16.3°C 59.2°F15.1°C 93% 1.5 mph E2.4 kmh E 4.0 mph6.4 kmh 30.09 in1019.0 mb 0.00 in0.0 mm 0.00 in0.0 mm 0.00 in0.0 mm
03:07 AM 61.3°F16.3°C 59.5°F15.3°C 94% Calm Calm 4.0 mph6.4 kmh 30.09 in1019.0 mb 0.00 in0.0 mm 0.00 in0.0 mm 0.00 in0.0 mm
03:12 AM 61.3°F16.3°C 59.5°F15.3°C 94% 1.0 mph ESE1.6 kmh ESE 2.0 mph3.2 kmh 30.09 in1019.0 mb 0.00 in0.0 mm 0.00 in0.0 mm 0.00 in0.0 mm
03:17 AM 61.3°F16.3°C 59.5°F15.3°C 94% 1.2 mph E1.9 kmh E 2.0 mph3.2 kmh 30.09 in1019.0 mb 0.00 in0.0 mm 0.00 in0.0 mm 0.00 in0.0 mm
03:22 AM 61.4°F16.3°C 59.6°F15.3°C 94% 1.7 mph ENE2.7 kmh ENE 3.0 mph4.8 kmh 30.09 in1019.0 mb 0.00 in0.0 mm 0.00 in0.0 mm 0.00 in0.0 mm
03:27 AM 61.4°F16.3°C 59.6°F15.3°C 94% 2.7 mph ENE4.3 kmh ENE 4.0 mph6.4 kmh 30.09 in1019.0 mb 0.00 in0.0 mm 0.00 in0.0 mm 0.00 in0.0 mm
03:32 AM 61.5°F16.4°C 59.7°F15.4°C 94% 1.6 mph NE2.6 kmh NE 4.0 mph6.4 kmh 30.09 in1019.0 mb 0.00 in0.0 mm 0.00 in0.0 mm 0.00 in0.0 mm
03:37 AM 61.4°F16.3°C 59.3°F15.2°C 93% 1.5 mph NE2.4 kmh NE 4.0 mph6.4 kmh 30.09 in1019.0 mb 0.00 in0.0 mm 0.00 in0.0 mm 0.00 in0.0 mm
03:42 AM 61.3°F16.3°C 59.5°F15.3°C 94% 2.0 mph NE3.2 kmh NE 4.0 mph6.4 kmh 30.09 in1019.0 mb 0.00 in0.0 mm 0.00 in0.0 mm 0.00 in0.0 mm
03:47 AM 61.3°F16.3°C 59.5°F15.3°C 94% 1.5 mph NE2.4 kmh NE 4.0 mph6.4 kmh 30.09 in1019.0 mb 0.00 in0.0 mm 0.00 in0.0 mm 0.00 in0.0 mm
03:52 AM 61.3°F16.3°C 59.5°F15.3°C 94% 1.0 mph E1.6 kmh E 4.0 mph6.4 kmh 30.09 in1019.0 mb 0.00 in0.0 mm 0.00 in0.0 mm 0.00 in0.0 mm
03:57 AM 61.3°F16.3°C 59.5°F15.3°C 94% 2.0 mph ENE3.2 kmh ENE 3.0 mph4.8 kmh 30.09 in1019.0 mb 0.00 in0.0 mm 0.00 in0.0 mm 0.00 in0.0 mm
04:02 AM 61.3°F16.3°C 59.6°F15.3°C 94% 2.3 mph NE3.7 kmh NE 4.0 mph6.4 kmh 30.09 in1019.0 mb 0.00 in0.0 mm 0.00 in0.0 mm 0.00 in0.0 mm
04:07 AM 61.1°F16.2°C 59.3°F15.2°C 94% 1.3 mph NE2.1 kmh NE 4.0 mph6.4 kmh 30.09 in1019.0 mb 0.00 in0.0 mm 0.00 in0.0 mm 0.00 in0.0 mm
04:12 AM 61.1°F16.2°C 59.4°F15.2°C 94% 1.3 mph NE2.1 kmh NE 4.0 mph6.4 kmh 30.09 in1019.0 mb 0.00 in0.0 mm 0.00 in0.0 mm 0.00 in0.0 mm
04:17 AM 61.0°F16.1°C 59.2°F15.1°C 94% 2.8 mph NE4.5 kmh NE 4.0 mph6.4 kmh 30.09 in1019.0 mb 0.00 in0.0 mm 0.00 in0.0 mm 0.00 in0.0 mm
04:22 AM 60.9°F16.1°C 59.2°F15.1°C 94% 3.4 mph NE5.5 kmh NE 7.0 mph11.3 kmh 30.09 in1019.0 mb 0.00 in0.0 mm 0.00 in0.0 mm 0.00 in0.0 mm
04:27 AM 60.8°F16.0°C 59.1°F15.1°C 94% 2.2 mph NE3.5 kmh NE 7.0 mph11.3 kmh 30.09 in1019.0 mb 0.00 in0.0 mm 0.00 in0.0 mm 0.00 in0.0 mm
04:32 AM 60.7°F15.9°C 59.3°F15.2°C 95% 2.0 mph NE3.2 kmh NE 7.0 mph11.3 kmh 30.09 in1019.0 mb 0.00 in0.0 mm 0.00 in0.0 mm 0.00 in0.0 mm
04:37 AM 60.7°F15.9°C 59.2°F15.1°C 95% 3.3 mph NE5.3 kmh NE 7.0 mph11.3 kmh 30.09 in1019.0 mb 0.00 in0.0 mm 0.00 in0.0 mm 0.00 in0.0 mm
04:42 AM 60.6°F15.9°C 59.1°F15.1°C 95% 3.1 mph NE5.0 kmh NE 5.0 mph8.0 kmh 30.09 in1019.0 mb 0.00 in0.0 mm 0.00 in0.0 mm 0.00 in0.0 mm
04:47 AM 60.5°F15.8°C 59.0°F15.0°C 95% 2.3 mph NE3.7 kmh NE 6.0 mph9.7 kmh 30.09 in1019.0 mb 0.00 in0.0 mm 0.00 in0.0 mm 0.00 in0.0 mm
04:52 AM 60.5°F15.8°C 59.0°F15.0°C 95% 2.9 mph NE4.7 kmh NE 6.0 mph9.7 kmh 30.09 in1019.0 mb 0.00 in0.0 mm 0.00 in0.0 mm 0.00 in0.0 mm
04:57 AM 60.4°F15.8°C 58.9°F14.9°C 95% 4.8 mph NE7.7 kmh NE 6.0 mph9.7 kmh 30.09 in1019.0 mb 0.00 in0.0 mm 0.00 in0.0 mm 0.00 in0.0 mm
05:02 AM 60.3°F15.7°C 58.8°F14.9°C 95% 2.1 mph NE3.4 kmh NE 6.0 mph9.7 kmh 30.09 in1019.0 mb 0.00 in0.0 mm 0.00 in0.0 mm 0.00 in0.0 mm
05:07 AM 60.3°F15.7°C 58.8°F14.9°C 95% 4.7 mph NE7.6 kmh NE 7.0 mph11.3 kmh 30.09 in1019.0 mb 0.00 in0.0 mm 0.00 in0.0 mm 0.00 in0.0 mm
05:12 AM 60.2°F15.7°C 58.7°F14.8°C 95% 3.5 mph NE5.6 kmh NE 7.0 mph11.3 kmh 30.08 in1018.6 mb 0.00 in0.0 mm 0.00 in0.0 mm 0.00 in0.0 mm
05:17 AM 60.1°F15.6°C 58.6°F14.8°C 95% 2.7 mph NE4.3 kmh NE 9.0 mph14.5 kmh 30.08 in1018.6 mb 0.00 in0.0 mm 0.00 in0.0 mm 0.00 in0.0 mm
05:22 AM 60.1°F15.6°C 58.6°F14.8°C 95% 3.7 mph NE6.0 kmh NE 9.0 mph14.5 kmh 30.09 in1019.0 mb 0.00 in0.0 mm 0.00 in0.0 mm 0.00 in0.0 mm
05:27 AM 60.0°F15.6°C 58.8°F14.9°C 96% 1.7 mph ENE2.7 kmh ENE 9.0 mph14.5 kmh 30.09 in1019.0 mb 0.00 in0.0 mm 0.00 in0.0 mm 0.00 in0.0 mm
05:32 AM 60.0°F15.6°C 58.8°F14.9°C 96% 3.5 mph NE5.6 kmh NE 9.0 mph14.5 kmh 30.10 in1019.3 mb 0.00 in0.0 mm 0.00 in0.0 mm 0.00 in0.0 mm
05:37 AM 60.0°F15.6°C 58.8°F14.9°C 96% 2.6 mph NE4.2 kmh NE 8.0 mph12.9 kmh 30.10 in1019.3 mb 0.00 in0.0 mm 0.00 in0.0 mm 0.00 in0.0 mm
05:42 AM 60.0°F15.6°C 58.8°F14.9°C 96% 3.3 mph NE5.3 kmh NE 6.0 mph9.7 kmh 30.10 in1019.3 mb 0.00 in0.0 mm 0.00 in0.0 mm 0.00 in0.0 mm
05:47 AM 59.9°F15.5°C 58.7°F14.8°C 96% 2.3 mph NE3.7 kmh NE 6.0 mph9.7 kmh 30.10 in1019.3 mb 0.00 in0.0 mm 0.00 in0.0 mm 0.00 in0.0 mm
05:52 AM 59.9°F15.5°C 58.7°F14.8°C 96% 3.4 mph NE5.5 kmh NE 6.0 mph9.7 kmh 30.10 in1019.3 mb 0.00 in0.0 mm 0.00 in0.0 mm 0.00 in0.0 mm
05:57 AM 59.8°F15.4°C 58.6°F14.8°C 96% 2.5 mph NE4.0 kmh NE 6.0 mph9.7 kmh 30.10 in1019.3 mb 0.00 in0.0 mm 0.00 in0.0 mm 0.00 in0.0 mm
06:02 AM 59.7°F15.4°C 58.5°F14.7°C 96% 3.9 mph NE6.3 kmh NE 7.0 mph11.3 kmh 30.10 in1019.3 mb 0.00 in0.0 mm 0.00 in0.0 mm 0.00 in0.0 mm
06:07 AM 59.7°F15.4°C 58.5°F14.7°C 96% 4.4 mph NE7.1 kmh NE 9.0 mph14.5 kmh 30.10 in1019.3 mb 0.00 in0.0 mm 0.00 in0.0 mm 0.00 in0.0 mm
06:12 AM 59.6°F15.3°C 58.4°F14.7°C 96% 3.6 mph ENE5.8 kmh ENE 9.0 mph14.5 kmh 30.10 in1019.3 mb 0.00 in0.0 mm 0.00 in0.0 mm 0.00 in0.0 mm
06:17 AM 59.7°F15.4°C 58.6°F14.8°C 96% 2.9 mph ENE4.7 kmh ENE 9.0 mph14.5 kmh 30.11 in1019.6 mb 0.00 in0.0 mm 0.00 in0.0 mm 0.00 in0.0 mm
06:22 AM 59.7°F15.4°C 58.5°F14.7°C 96% 3.8 mph ENE6.1 kmh ENE 9.0 mph14.5 kmh 30.11 in1019.6 mb 0.00 in0.0 mm 0.00 in0.0 mm 0.00 in0.0 mm
06:27 AM 59.7°F15.4°C 58.5°F14.7°C 96% 2.2 mph NE3.5 kmh NE 8.0 mph12.9 kmh 30.11 in1019.6 mb 0.00 in0.0 mm 0.00 in0.0 mm 0.00 in0.0 mm
06:32 AM 59.7°F15.4°C 58.5°F14.7°C 96% 3.2 mph NE5.1 kmh NE 7.0 mph11.3 kmh 30.11 in1019.6 mb 0.00 in0.0 mm 0.00 in0.0 mm 0.00 in0.0 mm
06:37 AM 59.8°F15.4°C 58.6°F14.8°C 96% 3.9 mph E6.3 kmh E 7.0 mph11.3 kmh 30.12 in1020.0 mb 0.00 in0.0 mm 0.00 in0.0 mm 0.00 in0.0 mm
06:42 AM 59.8°F15.4°C 58.7°F14.8°C 96% 2.6 mph ENE4.2 kmh ENE 6.0 mph9.7 kmh 30.12 in1020.0 mb 0.00 in0.0 mm 0.00 in0.0 mm 0.00 in0.0 mm
06:46 AM 59.9°F15.5°C 58.8°F14.9°C 96% 2.8 mph NE4.5 kmh NE 6.0 mph9.7 kmh 30.12 in1020.0 mb 0.00 in0.0 mm 0.00 in0.0 mm 0.00 in0.0 mm
06:51 AM 59.9°F15.5°C 58.7°F14.8°C 96% 3.7 mph ENE6.0 kmh ENE 6.0 mph9.7 kmh 30.13 in1020.3 mb 0.00 in0.0 mm 0.00 in0.0 mm 0.00 in0.0 mm
06:56 AM 59.9°F15.5°C 58.7°F14.8°C 96% 2.9 mph ENE4.7 kmh ENE 6.0 mph9.7 kmh 30.13 in1020.3 mb 0.00 in0.0 mm 0.00 in0.0 mm 0.00 in0.0 mm
07:01 AM 59.9°F15.5°C 58.7°F14.8°C 96% 3.6 mph ENE5.8 kmh ENE 7.0 mph11.3 kmh 30.13 in1020.3 mb 0.00 in0.0 mm 0.00 in0.0 mm 0.00 in0.0 mm
07:06 AM 59.9°F15.5°C 58.8°F14.9°C 96% 3.3 mph ENE5.3 kmh ENE 7.0 mph11.3 kmh 30.13 in1020.3 mb 0.00 in0.0 mm 0.00 in0.0 mm 0.00 in0.0 mm
07:11 AM 59.9°F15.5°C 58.8°F14.9°C 96% 3.0 mph E4.8 kmh E 7.0 mph11.3 kmh 30.13 in1020.3 mb 0.00 in0.0 mm 0.00 in0.0 mm 0.00 in0.0 mm
07:16 AM 59.9°F15.5°C 58.8°F14.9°C 96% 3.9 mph ENE6.3 kmh ENE 7.0 mph11.3 kmh 30.13 in1020.3 mb 0.00 in0.0 mm 0.00 in0.0 mm 0.00 in0.0 mm
07:21 AM 60.0°F15.6°C 58.8°F14.9°C 96% 2.9 mph E4.7 kmh E 7.0 mph11.3 kmh 30.13 in1020.3 mb 0.00 in0.0 mm 0.00 in0.0 mm 0.00 in0.0 mm
07:26 AM 60.0°F15.6°C 58.8°F14.9°C 96% 1.3 mph E2.1 kmh E 7.0 mph11.3 kmh 30.14 in1020.7 mb 0.00 in0.0 mm 0.00 in0.0 mm 0.00 in0.0 mm
07:31 AM 60.1°F15.6°C 58.9°F14.9°C 96% 3.7 mph NE6.0 kmh NE 7.0 mph11.3 kmh 30.14 in1020.7 mb 0.00 in0.0 mm 0.00 in0.0 mm 0.00 in0.0 mm
07:36 AM 60.1°F15.6°C 58.9°F14.9°C 96% 3.4 mph NE5.5 kmh NE 7.0 mph11.3 kmh 30.14 in1020.7 mb 0.00 in0.0 mm 0.00 in0.0 mm 0.00 in0.0 mm
07:41 AM 60.1°F15.6°C 58.9°F14.9°C 96% 3.4 mph NE5.5 kmh NE 8.0 mph12.9 kmh 30.14 in1020.7 mb 0.00 in0.0 mm 0.00 in0.0 mm 0.00 in0.0 mm
07:46 AM 60.0°F15.6°C 58.8°F14.9°C 96% 5.1 mph NE8.2 kmh NE 9.0 mph14.5 kmh 30.14 in1020.7 mb 0.00 in0.0 mm 0.00 in0.0 mm 0.00 in0.0 mm
07:51 AM 60.1°F15.6°C 58.9°F14.9°C 96% 3.9 mph NE6.3 kmh NE 9.0 mph14.5 kmh 30.14 in1020.7 mb 0.00 in0.0 mm 0.00 in0.0 mm 0.00 in0.0 mm
07:56 AM 60.0°F15.6°C 58.8°F14.9°C 96% 6.1 mph NE9.8 kmh NE 10.0 mph16.1 kmh 30.15 in1021.0 mb 0.00 in0.0 mm 0.00 in0.0 mm 0.00 in0.0 mm
08:01 AM 60.0°F15.6°C 58.8°F14.9°C 96% 3.0 mph ENE4.8 kmh ENE 10.0 mph16.1 kmh 30.15 in1021.0 mb 0.00 in0.0 mm 0.00 in0.0 mm 0.00 in0.0 mm
08:06 AM 59.9°F15.5°C 58.7°F14.8°C 96% 5.5 mph ENE8.9 kmh ENE 10.0 mph16.1 kmh 30.15 in1021.0 mb 0.00 in0.0 mm 0.00 in0.0 mm 0.00 in0.0 mm
08:11 AM 59.9°F15.5°C 58.7°F14.8°C 96% 3.5 mph NE5.6 kmh NE 10.0 mph16.1 kmh 30.16 in1021.3 mb 0.00 in0.0 mm 0.00 in0.0 mm 0.00 in0.0 mm
08:16 AM 60.0°F15.6°C 58.8°F14.9°C 96% 2.5 mph E4.0 kmh E 10.0 mph16.1 kmh 30.16 in1021.3 mb 0.00 in0.0 mm 0.00 in0.0 mm 0.00 in0.0 mm
08:21 AM 59.9°F15.5°C 58.7°F14.8°C 96% 3.2 mph NE5.1 kmh NE 10.0 mph16.1 kmh 30.16 in1021.3 mb 0.00 in0.0 mm 0.00 in0.0 mm 0.00 in0.0 mm
08:26 AM 59.8°F15.4°C 58.6°F14.8°C 96% 3.3 mph ENE5.3 kmh ENE 10.0 mph16.1 kmh 30.16 in1021.3 mb 0.00 in0.0 mm 0.00 in0.0 mm 0.00 in0.0 mm
08:31 AM 59.8°F15.4°C 58.6°F14.8°C 96% 5.1 mph NE8.2 kmh NE 10.0 mph16.1 kmh 30.16 in1021.3 mb 0.00 in0.0 mm 0.00 in0.0 mm 0.00 in0.0 mm
08:36 AM 59.8°F15.4°C 58.6°F14.8°C 96% 4.3 mph NE6.9 kmh NE 9.0 mph14.5 kmh 30.16 in1021.3 mb 0.00 in0.0 mm 0.00 in0.0 mm 0.00 in0.0 mm
08:41 AM 59.8°F15.4°C 58.6°F14.8°C 96% 4.1 mph NE6.6 kmh NE 9.0 mph14.5 kmh 30.16 in1021.3 mb 0.00 in0.0 mm 0.00 in0.0 mm 0.00 in0.0 mm
08:46 AM 59.8°F15.4°C 58.6°F14.8°C 96% 4.0 mph ENE6.4 kmh ENE 9.0 mph14.5 kmh 30.16 in1021.3 mb 0.00 in0.0 mm 0.00 in0.0 mm 0.00 in0.0 mm
08:52 AM 59.8°F15.4°C 58.6°F14.8°C 96% 3.6 mph ENE5.8 kmh ENE 9.0 mph14.5 kmh 30.16 in1021.3 mb 0.00 in0.0 mm 0.00 in0.0 mm 0.00 in0.0 mm
08:56 AM 59.8°F15.4°C 58.6°F14.8°C 96% 3.4 mph ENE5.5 kmh ENE 8.0 mph12.9 kmh 30.16 in1021.3 mb 0.00 in0.0 mm 0.00 in0.0 mm 0.00 in0.0 mm
09:02 AM 60.0°F15.6°C 58.8°F14.9°C 96% 2.9 mph NE4.7 kmh NE 8.0 mph12.9 kmh 30.16 in1021.3 mb 0.00 in0.0 mm 0.00 in0.0 mm 0.00 in0.0 mm
09:07 AM 60.0°F15.6°C 58.8°F14.9°C 96% 4.1 mph ENE6.6 kmh ENE 8.0 mph12.9 kmh 30.16 in1021.3 mb 0.00 in0.0 mm 0.00 in0.0 mm 0.00 in0.0 mm
09:12 AM 60.1°F15.6°C 58.9°F14.9°C 96% 1.8 mph NE2.9 kmh NE 8.0 mph12.9 kmh 30.16 in1021.3 mb 0.00 in0.0 mm 0.00 in0.0 mm 0.00 in0.0 mm
09:17 AM 60.1°F15.6°C 58.9°F14.9°C 96% 2.7 mph NE4.3 kmh NE 9.0 mph14.5 kmh 30.16 in1021.3 mb 0.00 in0.0 mm 0.00 in0.0 mm 0.00 in0.0 mm
09:22 AM 60.1°F15.6°C 58.6°F14.8°C 95% 4.1 mph NE6.6 kmh NE 9.0 mph14.5 kmh 30.16 in1021.3 mb 0.00 in0.0 mm 0.00 in0.0 mm 0.00 in0.0 mm
09:27 AM 60.1°F15.6°C 58.6°F14.8°C 95% 3.9 mph NE6.3 kmh NE 9.0 mph14.5 kmh 30.16 in1021.3 mb 0.00 in0.0 mm 0.00 in0.0 mm 0.00 in0.0 mm
09:31 AM 60.1°F15.6°C 58.6°F14.8°C 95% 3.6 mph ENE5.8 kmh ENE 9.0 mph14.5 kmh 30.16 in1021.3 mb 0.00 in0.0 mm 0.00 in0.0 mm 0.00 in0.0 mm
09:37 AM 60.3°F15.7°C 58.8°F14.9°C 95% 5.4 mph NE8.7 kmh NE 9.0 mph14.5 kmh 30.16 in1021.3 mb 0.00 in0.0 mm 0.00 in0.0 mm 0.00 in0.0 mm
09:42 AM 60.6°F15.9°C 59.1°F15.1°C 95% 3.8 mph E6.1 kmh E 9.0 mph14.5 kmh 30.16 in1021.3 mb 0.00 in0.0 mm 0.00 in0.0 mm 0.00 in0.0 mm
09:47 AM 60.6°F15.9°C 58.9°F14.9°C 94% 4.6 mph E7.4 kmh E 8.0 mph12.9 kmh 30.16 in1021.3 mb 0.00 in0.0 mm 0.00 in0.0 mm 0.00 in0.0 mm
09:52 AM 60.8°F16.0°C 59.1°F15.1°C 94% 3.3 mph ENE5.3 kmh ENE 8.0 mph12.9 kmh 30.17 in1021.7 mb 0.00 in0.0 mm 0.00 in0.0 mm 0.00 in0.0 mm
09:57 AM 60.8°F16.0°C 59.1°F15.1°C 94% 2.4 mph E3.9 kmh E 8.0 mph12.9 kmh 30.17 in1021.7 mb 0.00 in0.0 mm 0.00 in0.0 mm 0.00 in0.0 mm
10:02 AM 61.1°F16.2°C 59.4°F15.2°C 94% 1.8 mph ENE2.9 kmh ENE 8.0 mph12.9 kmh 30.17 in1021.7 mb 0.00 in0.0 mm 0.00 in0.0 mm 0.00 in0.0 mm
10:07 AM 61.3°F16.3°C 59.3°F15.2°C 93% 2.6 mph NE4.2 kmh NE 7.0 mph11.3 kmh 30.17 in1021.7 mb 0.00 in0.0 mm 0.00 in0.0 mm 0.00 in0.0 mm
10:12 AM 61.3°F16.3°C 59.3°F15.2°C 93% 2.4 mph ENE3.9 kmh ENE 7.0 mph11.3 kmh 30.18 in1022.0 mb 0.00 in0.0 mm 0.00 in0.0 mm 0.00 in0.0 mm
10:17 AM 61.4°F16.3°C 59.1°F15.1°C 92% 4.1 mph ENE6.6 kmh ENE 8.0 mph12.9 kmh 30.18 in1022.0 mb 0.00 in0.0 mm 0.00 in0.0 mm 0.00 in0.0 mm
10:22 AM 61.3°F16.3°C 59.3°F15.2°C 93% 4.5 mph E7.2 kmh E 9.0 mph14.5 kmh 30.18 in1022.0 mb 0.00 in0.0 mm 0.00 in0.0 mm 0.00 in0.0 mm
10:27 AM 61.3°F16.3°C 58.9°F14.9°C 92% 5.9 mph E9.5 kmh E 9.0 mph14.5 kmh 30.18 in1022.0 mb 0.00 in0.0 mm 0.00 in0.0 mm 0.00 in0.0 mm
10:32 AM 61.3°F16.3°C 59.0°F15.0°C 92% 6.7 mph E10.8 kmh E 11.0 mph17.7 kmh 30.18 in1022.0 mb 0.00 in0.0 mm 0.00 in0.0 mm 0.00 in0.0 mm
10:37 AM 61.4°F16.3°C 59.1°F15.1°C 92% 2.6 mph ENE4.2 kmh ENE 11.0 mph17.7 kmh 30.18 in1022.0 mb 0.00 in0.0 mm 0.00 in0.0 mm 0.00 in0.0 mm
10:42 AM 61.5°F16.4°C 59.1°F15.1°C 92% 5.4 mph ENE8.7 kmh ENE 11.0 mph17.7 kmh 30.18 in1022.0 mb 0.00 in0.0 mm 0.00 in0.0 mm 0.00 in0.0 mm
10:47 AM 61.6°F16.4°C 59.2°F15.1°C 92% 4.7 mph ENE7.6 kmh ENE 11.0 mph17.7 kmh 30.18 in1022.0 mb 0.00 in0.0 mm 0.00 in0.0 mm 0.00 in0.0 mm
10:52 AM 61.8°F16.6°C 59.4°F15.2°C 92% 3.8 mph E6.1 kmh E 9.0 mph14.5 kmh 30.18 in1022.0 mb 0.00 in0.0 mm 0.00 in0.0 mm 0.00 in0.0 mm
10:57 AM 61.8°F16.6°C 59.4°F15.2°C 92% 4.2 mph E6.8 kmh E 9.0 mph14.5 kmh 30.18 in1022.0 mb 0.00 in0.0 mm 0.00 in0.0 mm 0.00 in0.0 mm
11:02 AM 61.7°F16.5°C 59.3°F15.2°C 92% 4.7 mph E7.6 kmh E 8.0 mph12.9 kmh 30.18 in1022.0 mb 0.00 in0.0 mm 0.00 in0.0 mm 0.00 in0.0 mm
11:07 AM 61.6°F16.4°C 59.5°F15.3°C 93% 3.2 mph NE5.1 kmh NE 8.0 mph12.9 kmh 30.18 in1022.0 mb 0.00 in0.0 mm 0.00 in0.0 mm 0.00 in0.0 mm
11:12 AM 61.6°F16.4°C 59.8°F15.4°C 94% 2.6 mph ENE4.2 kmh ENE 8.0 mph12.9 kmh 30.18 in1022.0 mb 0.00 in0.0 mm 0.00 in0.0 mm 0.00 in0.0 mm
11:17 AM 61.5°F16.4°C 59.4°F15.2°C 93% 2.2 mph E3.5 kmh E 7.0 mph11.3 kmh 30.18 in1022.0 mb 0.00 in0.0 mm 0.00 in0.0 mm 0.00 in0.0 mm
11:22 AM 61.5°F16.4°C 59.7°F15.4°C 94% 3.7 mph E6.0 kmh E 7.0 mph11.3 kmh 30.18 in1022.0 mb 0.00 in0.0 mm 0.00 in0.0 mm 0.00 in0.0 mm
11:27 AM 61.7°F16.5°C 59.9°F15.5°C 94% 2.3 mph ENE3.7 kmh ENE 6.0 mph9.7 kmh 30.18 in1022.0 mb 0.00 in0.0 mm 0.00 in0.0 mm 0.00 in0.0 mm
11:32 AM 61.8°F16.6°C 60.0°F15.6°C 94% 3.1 mph ENE5.0 kmh ENE 6.0 mph9.7 kmh 30.18 in1022.0 mb 0.00 in0.0 mm 0.00 in0.0 mm 0.00 in0.0 mm
11:37 AM 61.8°F16.6°C 60.0°F15.6°C 94% 2.7 mph ENE4.3 kmh ENE 7.0 mph11.3 kmh 30.18 in1022.0 mb 0.00 in0.0 mm 0.00 in0.0 mm 0.00 in0.0 mm
11:42 AM 61.9°F16.6°C 60.1°F15.6°C 94% 3.7 mph E6.0 kmh E 7.0 mph11.3 kmh 30.18 in1022.0 mb 0.00 in0.0 mm 0.00 in0.0 mm 0.00 in0.0 mm
11:47 AM 62.0°F16.7°C 60.2°F15.7°C 94% 2.3 mph ENE3.7 kmh ENE 7.0 mph11.3 kmh 30.18 in1022.0 mb 0.00 in0.0 mm 0.00 in0.0 mm 0.00 in0.0 mm
11:52 AM 62.2°F16.8°C 60.4°F15.8°C 94% 3.4 mph NE5.5 kmh NE 7.0 mph11.3 kmh 30.18 in1022.0 mb 0.00 in0.0 mm 0.00 in0.0 mm 0.00 in0.0 mm
11:57 AM 62.3°F16.8°C 60.5°F15.8°C 94% 2.2 mph ENE3.5 kmh ENE 7.0 mph11.3 kmh 30.18 in1022.0 mb 0.00 in0.0 mm 0.00 in0.0 mm 0.00 in0.0 mm
12:02 PM 62.3°F16.8°C 60.2°F15.7°C 93% 3.4 mph NE5.5 kmh NE 6.0 mph9.7 kmh 30.18 in1022.0 mb 0.00 in0.0 mm 0.00 in0.0 mm 0.00 in0.0 mm
12:07 PM 62.3°F16.8°C 60.2°F15.7°C 93% 3.9 mph E6.3 kmh E 6.0 mph9.7 kmh 30.17 in1021.7 mb 0.00 in0.0 mm 0.00 in0.0 mm 0.00 in0.0 mm
12:12 PM 62.5°F16.9°C 60.4°F15.8°C 93% 3.7 mph E6.0 kmh E 8.0 mph12.9 kmh 30.18 in1022.0 mb 0.00 in0.0 mm 0.00 in0.0 mm 0.00 in0.0 mm
12:17 PM 62.6°F17.0°C 60.5°F15.8°C 93% 2.3 mph E3.7 kmh E 8.0 mph12.9 kmh 30.18 in1022.0 mb 0.00 in0.0 mm 0.00 in0.0 mm 0.00 in0.0 mm
12:22 PM 62.8°F17.1°C 60.7°F15.9°C 93% 1.1 mph ESE1.8 kmh ESE 8.0 mph12.9 kmh 30.17 in1021.7 mb 0.00 in0.0 mm 0.00 in0.0 mm 0.00 in0.0 mm
12:27 PM 63.1°F17.3°C 60.7°F15.9°C 92% 3.9 mph ENE6.3 kmh ENE 8.0 mph12.9 kmh 30.17 in1021.7 mb 0.00 in0.0 mm 0.00 in0.0 mm 0.00 in0.0 mm
12:32 PM 63.4°F17.4°C 61.0°F16.1°C 92% 2.5 mph ENE4.0 kmh ENE 8.0 mph12.9 kmh 30.17 in1021.7 mb 0.00 in0.0 mm 0.00 in0.0 mm 0.00 in0.0 mm
12:37 PM 63.7°F17.6°C 61.0°F16.1°C 91% 2.6 mph NE4.2 kmh NE 8.0 mph12.9 kmh 30.17 in1021.7 mb 0.00 in0.0 mm 0.00 in0.0 mm 0.00 in0.0 mm
12:42 PM 64.1°F17.8°C 61.4°F16.3°C 91% 2.9 mph NE4.7 kmh NE 8.0 mph12.9 kmh 30.17 in1021.7 mb 0.00 in0.0 mm 0.00 in0.0 mm 0.00 in0.0 mm
12:46 PM 64.3°F17.9°C 61.3°F16.3°C 90% 3.2 mph NE5.1 kmh NE 7.0 mph11.3 kmh 30.16 in1021.3 mb 0.00 in0.0 mm 0.00 in0.0 mm 0.00 in0.0 mm
12:51 PM 64.5°F18.1°C 61.2°F16.2°C 89% 2.3 mph NE3.7 kmh NE 7.0 mph11.3 kmh 30.17 in1021.7 mb 0.00 in0.0 mm 0.00 in0.0 mm 0.00 in0.0 mm
12:56 PM 64.4°F18.0°C 61.1°F16.2°C 89% 3.8 mph ENE6.1 kmh ENE 7.0 mph11.3 kmh 30.16 in1021.3 mb 0.00 in0.0 mm 0.00 in0.0 mm 0.00 in0.0 mm
01:01 PM 64.5°F18.1°C 61.2°F16.2°C 89% 3.4 mph NE5.5 kmh NE 7.0 mph11.3 kmh 30.16 in1021.3 mb 0.00 in0.0 mm 0.00 in0.0 mm 0.00 in0.0 mm
01:06 PM 64.8°F18.2°C 61.5°F16.4°C 89% 2.4 mph NE3.9 kmh NE 6.0 mph9.7 kmh 30.16 in1021.3 mb 0.00 in0.0 mm 0.00 in0.0 mm 0.00 in0.0 mm
01:11 PM 64.9°F18.3°C 61.6°F16.4°C 89% 3.0 mph NE4.8 kmh NE 6.0 mph9.7 kmh 30.16 in1021.3 mb 0.00 in0.0 mm 0.00 in0.0 mm 0.00 in0.0 mm
01:16 PM 64.9°F18.3°C 61.6°F16.4°C 89% 2.4 mph ENE3.9 kmh ENE 6.0 mph9.7 kmh 30.16 in1021.3 mb 0.00 in0.0 mm 0.00 in0.0 mm 0.00 in0.0 mm
01:21 PM 64.8°F18.2°C 61.5°F16.4°C 89% 2.6 mph NE4.2 kmh NE 6.0 mph9.7 kmh 30.16 in1021.3 mb 0.00 in0.0 mm 0.00 in0.0 mm 0.00 in0.0 mm
01:26 PM 65.0°F18.3°C 61.3°F16.3°C 88% 3.0 mph NE4.8 kmh NE 7.0 mph11.3 kmh 30.16 in1021.3 mb 0.00 in0.0 mm 0.00 in0.0 mm 0.00 in0.0 mm
01:31 PM 65.2°F18.4°C 61.5°F16.4°C 88% 3.1 mph NE5.0 kmh NE 7.0 mph11.3 kmh 30.16 in1021.3 mb 0.00 in0.0 mm 0.00 in0.0 mm 0.00 in0.0 mm
01:36 PM 65.2°F18.4°C 61.5°F16.4°C 88% 3.6 mph NE5.8 kmh NE 7.0 mph11.3 kmh 30.16 in1021.3 mb 0.00 in0.0 mm 0.00 in0.0 mm 0.00 in0.0 mm
01:41 PM 65.2°F18.4°C 61.5°F16.4°C 88% 3.4 mph ENE5.5 kmh ENE 7.0 mph11.3 kmh 30.16 in1021.3 mb 0.00 in0.0 mm 0.00 in0.0 mm 0.00 in0.0 mm
01:46 PM 65.5°F18.6°C 61.8°F16.6°C 88% 3.5 mph ENE5.6 kmh ENE 7.0 mph11.3 kmh 30.16 in1021.3 mb 0.00 in0.0 mm 0.00 in0.0 mm 0.00 in0.0 mm
01:51 PM 65.6°F18.7°C 61.9°F16.6°C 88% 2.2 mph NE3.5 kmh NE 7.0 mph11.3 kmh 30.15 in1021.0 mb 0.00 in0.0 mm 0.00 in0.0 mm 0.00 in0.0 mm
01:56 PM 65.7°F18.7°C 61.7°F16.5°C 87% 2.0 mph NE3.2 kmh NE 6.0 mph9.7 kmh 30.15 in1021.0 mb 0.00 in0.0 mm 0.00 in0.0 mm 0.00 in0.0 mm
02:01 PM 65.8°F18.8°C 61.8°F16.6°C 87% 1.6 mph ENE2.6 kmh ENE 6.0 mph9.7 kmh 30.15 in1021.0 mb 0.00 in0.0 mm 0.00 in0.0 mm 0.00 in0.0 mm
02:06 PM 65.8°F18.8°C 61.8°F16.6°C 87% 1.9 mph NE3.1 kmh NE 5.0 mph8.0 kmh 30.15 in1021.0 mb 0.00 in0.0 mm 0.00 in0.0 mm 0.00 in0.0 mm
02:11 PM 65.9°F18.8°C 61.9°F16.6°C 87% 1.4 mph E2.3 kmh E 5.0 mph8.0 kmh 30.15 in1021.0 mb 0.00 in0.0 mm 0.00 in0.0 mm 0.00 in0.0 mm
02:16 PM 66.0°F18.9°C 62.0°F16.7°C 87% 2.3 mph NE3.7 kmh NE 5.0 mph8.0 kmh 30.15 in1021.0 mb 0.00 in0.0 mm 0.00 in0.0 mm 0.00 in0.0 mm
02:21 PM 65.9°F18.8°C 61.9°F16.6°C 87% 1.0 mph NE1.6 kmh NE 5.0 mph8.0 kmh 30.15 in1021.0 mb 0.00 in0.0 mm 0.00 in0.0 mm 0.00 in0.0 mm
02:26 PM 66.1°F18.9°C 61.8°F16.6°C 86% 2.8 mph NE4.5 kmh NE 5.0 mph8.0 kmh 30.14 in1020.7 mb 0.00 in0.0 mm 0.00 in0.0 mm 0.00 in0.0 mm
02:31 PM 66.4°F19.1°C 62.4°F16.9°C 87% 2.2 mph NE3.5 kmh NE 5.0 mph8.0 kmh 30.15 in1021.0 mb 0.00 in0.0 mm 0.00 in0.0 mm 0.00 in0.0 mm
02:36 PM 66.6°F19.2°C 62.0°F16.7°C 85% 2.0 mph ENE3.2 kmh ENE 5.0 mph8.0 kmh 30.15 in1021.0 mb 0.00 in0.0 mm 0.00 in0.0 mm 0.00 in0.0 mm
02:41 PM 66.6°F19.2°C 62.3°F16.8°C 86% 1.9 mph E3.1 kmh E 5.0 mph8.0 kmh 30.15 in1021.0 mb 0.00 in0.0 mm 0.00 in0.0 mm 0.00 in0.0 mm
02:46 PM 66.7°F19.3°C 62.4°F16.9°C 86% 3.3 mph E5.3 kmh E 6.0 mph9.7 kmh 30.14 in1020.7 mb 0.00 in0.0 mm 0.00 in0.0 mm 0.00 in0.0 mm
02:52 PM 67.0°F19.4°C 62.4°F16.9°C 85% 4.6 mph E7.4 kmh E 7.0 mph11.3 kmh 30.14 in1020.7 mb 0.00 in0.0 mm 0.00 in0.0 mm 0.00 in0.0 mm
02:57 PM 67.1°F19.5°C 62.8°F17.1°C 86% 3.2 mph E5.1 kmh E 7.0 mph11.3 kmh 30.14 in1020.7 mb 0.00 in0.0 mm 0.00 in0.0 mm 0.00 in0.0 mm
03:02 PM 67.0°F19.4°C 62.4°F16.9°C 85% 1.8 mph ESE2.9 kmh ESE 7.0 mph11.3 kmh 30.14 in1020.7 mb 0.00 in0.0 mm 0.00 in0.0 mm 0.00 in0.0 mm
03:07 PM 67.1°F19.5°C 62.8°F17.1°C 86% 1.4 mph E2.3 kmh E 7.0 mph11.3 kmh 30.14 in1020.7 mb 0.00 in0.0 mm 0.00 in0.0 mm 0.00 in0.0 mm
03:12 PM 67.2°F19.6°C 62.9°F17.2°C 86% 2.4 mph SE3.9 kmh SE 7.0 mph11.3 kmh 30.13 in1020.3 mb 0.00 in0.0 mm 0.00 in0.0 mm 0.00 in0.0 mm
03:18 PM 67.2°F19.6°C 62.6°F17.0°C 85% 2.3 mph ENE3.7 kmh ENE 5.0 mph8.0 kmh 30.13 in1020.3 mb 0.00 in0.0 mm 0.00 in0.0 mm 0.00 in0.0 mm
03:23 PM 67.2°F19.6°C 62.6°F17.0°C 85% 3.2 mph NE5.1 kmh NE 5.0 mph8.0 kmh 30.12 in1020.0 mb 0.00 in0.0 mm 0.00 in0.0 mm 0.00 in0.0 mm
03:28 PM 67.4°F19.7°C 63.1°F17.3°C 86% 2.6 mph NE4.2 kmh NE 5.0 mph8.0 kmh 30.12 in1020.0 mb 0.00 in0.0 mm 0.00 in0.0 mm 0.00 in0.0 mm
03:33 PM 67.7°F19.8°C 63.0°F17.2°C 85% 4.0 mph NE6.4 kmh NE 7.0 mph11.3 kmh 30.12 in1020.0 mb 0.00 in0.0 mm 0.00 in0.0 mm 0.00 in0.0 mm
03:38 PM 67.8°F19.9°C 63.1°F17.3°C 85% 3.6 mph E5.8 kmh E 7.0 mph11.3 kmh 30.11 in1019.6 mb 0.00 in0.0 mm 0.00 in0.0 mm 0.00 in0.0 mm
03:44 PM 67.9°F19.9°C 63.2°F17.3°C 85% 3.4 mph NE5.5 kmh NE 7.0 mph11.3 kmh 30.11 in1019.6 mb 0.00 in0.0 mm 0.00 in0.0 mm 0.00 in0.0 mm
03:49 PM 68.2°F20.1°C 63.5°F17.5°C 85% 1.6 mph ENE2.6 kmh ENE 7.0 mph11.3 kmh 30.11 in1019.6 mb 0.00 in0.0 mm 0.00 in0.0 mm 0.00 in0.0 mm
03:54 PM 68.5°F20.3°C 63.5°F17.5°C 84% 2.4 mph E3.9 kmh E 6.0 mph9.7 kmh 30.10 in1019.3 mb 0.00 in0.0 mm 0.00 in0.0 mm 0.00 in0.0 mm
03:59 PM 68.3°F20.2°C 63.6°F17.6°C 85% 3.1 mph E5.0 kmh E 8.0 mph12.9 kmh 30.10 in1019.3 mb 0.00 in0.0 mm 0.00 in0.0 mm 0.00 in0.0 mm
04:04 PM 68.3°F20.2°C 63.6°F17.6°C 85% 1.6 mph E2.6 kmh E 8.0 mph12.9 kmh 30.10 in1019.3 mb 0.00 in0.0 mm 0.00 in0.0 mm 0.00 in0.0 mm
04:10 PM 68.4°F20.2°C 63.7°F17.6°C 85% 1.4 mph NE2.3 kmh NE 8.0 mph12.9 kmh 30.10 in1019.3 mb 0.00 in0.0 mm 0.00 in0.0 mm 0.00 in0.0 mm
04:15 PM 68.6°F20.3°C 63.6°F17.6°C 84% 3.2 mph NE5.1 kmh NE 7.0 mph11.3 kmh 30.10 in1019.3 mb 0.00 in0.0 mm 0.00 in0.0 mm 0.00 in0.0 mm
04:20 PM 68.5°F20.3°C 63.5°F17.5°C 84% 1.9 mph E3.1 kmh E 7.0 mph11.3 kmh 30.10 in1019.3 mb 0.00 in0.0 mm 0.00 in0.0 mm 0.00 in0.0 mm
04:25 PM 68.7°F20.4°C 63.7°F17.6°C 84% 3.9 mph ESE6.3 kmh ESE 7.0 mph11.3 kmh 30.10 in1019.3 mb 0.00 in0.0 mm 0.00 in0.0 mm 0.00 in0.0 mm
04:30 PM 68.9°F20.5°C 64.2°F17.9°C 85% 1.7 mph E2.7 kmh E 7.0 mph11.3 kmh 30.10 in1019.3 mb 0.00 in0.0 mm 0.00 in0.0 mm 0.00 in0.0 mm
04:36 PM 68.9°F20.5°C 63.9°F17.7°C 84% 3.3 mph ESE5.3 kmh ESE 7.0 mph11.3 kmh 30.10 in1019.3 mb 0.00 in0.0 mm 0.00 in0.0 mm 0.00 in0.0 mm
04:41 PM 68.8°F20.4°C 63.8°F17.7°C 84% 2.5 mph E4.0 kmh E 9.0 mph14.5 kmh 30.10 in1019.3 mb 0.00 in0.0 mm 0.00 in0.0 mm 0.00 in0.0 mm
04:46 PM 68.8°F20.4°C 64.1°F17.8°C 85% 1.4 mph E2.3 kmh E 9.0 mph14.5 kmh 30.10 in1019.3 mb 0.00 in0.0 mm 0.00 in0.0 mm 0.00 in0.0 mm
04:51 PM 68.9°F20.5°C 63.9°F17.7°C 84% 1.9 mph SE3.1 kmh SE 9.0 mph14.5 kmh 30.10 in1019.3 mb 0.00 in0.0 mm 0.00 in0.0 mm 0.00 in0.0 mm
04:56 PM 68.8°F20.4°C 63.8°F17.7°C 84% 1.7 mph SE2.7 kmh SE 7.0 mph11.3 kmh 30.10 in1019.3 mb 0.00 in0.0 mm 0.00 in0.0 mm 0.00 in0.0 mm
05:02 PM 68.8°F20.4°C 64.1°F17.8°C 85% 3.1 mph ESE5.0 kmh ESE 7.0 mph11.3 kmh 30.10 in1019.3 mb 0.00 in0.0 mm 0.00 in0.0 mm 0.00 in0.0 mm
05:07 PM 68.7°F20.4°C 64.0°F17.8°C 85% 1.9 mph SE3.1 kmh SE 7.0 mph11.3 kmh 30.11 in1019.6 mb 0.00 in0.0 mm 0.00 in0.0 mm 0.00 in0.0 mm
05:12 PM 68.6°F20.3°C 64.3°F17.9°C 86% 2.3 mph SE3.7 kmh SE 7.0 mph11.3 kmh 30.12 in1020.0 mb 0.00 in0.0 mm 0.00 in0.0 mm 0.00 in0.0 mm
05:17 PM 68.4°F20.2°C 64.0°F17.8°C 86% 1.4 mph S2.3 kmh S 7.0 mph11.3 kmh 30.12 in1020.0 mb 0.00 in0.0 mm 0.00 in0.0 mm 0.00 in0.0 mm
05:22 PM 68.3°F20.2°C 63.9°F17.7°C 86% 2.8 mph SE4.5 kmh SE 7.0 mph11.3 kmh 30.12 in1020.0 mb 0.00 in0.0 mm 0.00 in0.0 mm 0.00 in0.0 mm
05:28 PM 68.1°F20.1°C 64.1°F17.8°C 87% 2.5 mph SE4.0 kmh SE 7.0 mph11.3 kmh 30.12 in1020.0 mb 0.00 in0.0 mm 0.00 in0.0 mm 0.00 in0.0 mm
05:33 PM 67.9°F19.9°C 63.9°F17.7°C 87% 1.8 mph SE2.9 kmh SE 6.0 mph9.7 kmh 30.12 in1020.0 mb 0.00 in0.0 mm 0.00 in0.0 mm 0.00 in0.0 mm
05:38 PM 67.7°F19.8°C 63.7°F17.6°C 87% 2.2 mph SE3.5 kmh SE 7.0 mph11.3 kmh 30.13 in1020.3 mb 0.00 in0.0 mm 0.00 in0.0 mm 0.00 in0.0 mm
05:43 PM 67.5°F19.7°C 63.8°F17.7°C 88% 1.8 mph E2.9 kmh E 7.0 mph11.3 kmh 30.13 in1020.3 mb 0.00 in0.0 mm 0.00 in0.0 mm 0.00 in0.0 mm
05:48 PM 67.4°F19.7°C 63.7°F17.6°C 88% 3.0 mph SE4.8 kmh SE 7.0 mph11.3 kmh 30.13 in1020.3 mb 0.00 in0.0 mm 0.00 in0.0 mm 0.00 in0.0 mm
05:54 PM 67.3°F19.6°C 63.6°F17.6°C 88% 1.1 mph SE1.8 kmh SE 7.0 mph11.3 kmh 30.13 in1020.3 mb 0.00 in0.0 mm 0.00 in0.0 mm 0.00 in0.0 mm
05:59 PM 67.2°F19.6°C 63.5°F17.5°C 88% 2.3 mph SE3.7 kmh SE 6.0 mph9.7 kmh 30.14 in1020.7 mb 0.00 in0.0 mm 0.00 in0.0 mm 0.00 in0.0 mm
06:04 PM 67.1°F19.5°C 63.7°F17.6°C 89% 1.6 mph SE2.6 kmh SE 7.0 mph11.3 kmh 30.13 in1020.3 mb 0.00 in0.0 mm 0.00 in0.0 mm 0.00 in0.0 mm
06:09 PM 66.9°F19.4°C 63.5°F17.5°C 89% 3.5 mph SE5.6 kmh SE 7.0 mph11.3 kmh 30.13 in1020.3 mb 0.00 in0.0 mm 0.00 in0.0 mm 0.00 in0.0 mm
06:14 PM 66.9°F19.4°C 63.5°F17.5°C 89% 2.3 mph SE3.7 kmh SE 7.0 mph11.3 kmh 30.14 in1020.7 mb 0.00 in0.0 mm 0.00 in0.0 mm 0.00 in0.0 mm
06:20 PM 66.7°F19.3°C 63.3°F17.4°C 89% 2.0 mph SE3.2 kmh SE 6.0 mph9.7 kmh 30.14 in1020.7 mb 0.00 in0.0 mm 0.00 in0.0 mm 0.00 in0.0 mm
06:25 PM 66.7°F19.3°C 63.7°F17.6°C 90% 1.6 mph SE2.6 kmh SE 6.0 mph9.7 kmh 30.13 in1020.3 mb 0.00 in0.0 mm 0.00 in0.0 mm 0.00 in0.0 mm
06:30 PM 66.6°F19.2°C 63.6°F17.6°C 90% 2.1 mph E3.4 kmh E 5.0 mph8.0 kmh 30.13 in1020.3 mb 0.00 in0.0 mm 0.00 in0.0 mm 0.00 in0.0 mm
06:35 PM 66.5°F19.2°C 63.5°F17.5°C 90% 5.1 mph ENE8.2 kmh ENE 7.0 mph11.3 kmh 30.13 in1020.3 mb 0.00 in0.0 mm 0.00 in0.0 mm 0.00 in0.0 mm
06:40 PM 66.4°F19.1°C 63.4°F17.4°C 90% 3.5 mph E5.6 kmh E 7.0 mph11.3 kmh 30.13 in1020.3 mb 0.00 in0.0 mm 0.00 in0.0 mm 0.00 in0.0 mm
06:45 PM 66.3°F19.1°C 63.3°F17.4°C 90% 1.3 mph E2.1 kmh E 7.0 mph11.3 kmh 30.14 in1020.7 mb 0.00 in0.0 mm 0.00 in0.0 mm 0.00 in0.0 mm
06:50 PM 66.2°F19.0°C 63.2°F17.3°C 90% 1.7 mph E2.7 kmh E 7.0 mph11.3 kmh 30.14 in1020.7 mb 0.00 in0.0 mm 0.00 in0.0 mm 0.00 in0.0 mm
06:55 PM 66.1°F18.9°C 63.4°F17.4°C 91% 1.4 mph ENE2.3 kmh ENE 6.0 mph9.7 kmh 30.14 in1020.7 mb 0.00 in0.0 mm 0.00 in0.0 mm 0.00 in0.0 mm
07:00 PM 66.0°F18.9°C 63.3°F17.4°C 91% 1.9 mph E3.1 kmh E 4.0 mph6.4 kmh 30.14 in1020.7 mb 0.00 in0.0 mm 0.00 in0.0 mm 0.00 in0.0 mm
07:05 PM 65.9°F18.8°C 63.2°F17.3°C 91% 2.5 mph ESE4.0 kmh ESE 4.0 mph6.4 kmh 30.14 in1020.7 mb 0.00 in0.0 mm 0.00 in0.0 mm 0.00 in0.0 mm
07:11 PM 65.7°F18.7°C 63.0°F17.2°C 91% 1.5 mph ESE2.4 kmh ESE 4.0 mph6.4 kmh 30.14 in1020.7 mb 0.00 in0.0 mm 0.00 in0.0 mm 0.00 in0.0 mm
07:16 PM 65.6°F18.7°C 62.9°F17.2°C 91% 1.2 mph SE1.9 kmh SE 4.0 mph6.4 kmh 30.15 in1021.0 mb 0.00 in0.0 mm 0.00 in0.0 mm 0.00 in0.0 mm
07:21 PM 65.5°F18.6°C 63.1°F17.3°C 92% 2.6 mph SE4.2 kmh SE 5.0 mph8.0 kmh 30.15 in1021.0 mb 0.00 in0.0 mm 0.00 in0.0 mm 0.00 in0.0 mm
07:26 PM 65.4°F18.6°C 63.0°F17.2°C 92% 1.5 mph SE2.4 kmh SE 5.0 mph8.0 kmh 30.15 in1021.0 mb 0.00 in0.0 mm 0.00 in0.0 mm 0.00 in0.0 mm
07:31 PM 65.3°F18.5°C 62.9°F17.2°C 92% 2.2 mph SE3.5 kmh SE 5.0 mph8.0 kmh 30.15 in1021.0 mb 0.00 in0.0 mm 0.00 in0.0 mm 0.00 in0.0 mm
07:37 PM 65.3°F18.5°C 62.9°F17.2°C 92% 1.0 mph SSE1.6 kmh SSE 5.0 mph8.0 kmh 30.15 in1021.0 mb 0.00 in0.0 mm 0.00 in0.0 mm 0.00 in0.0 mm
07:42 PM 65.2°F18.4°C 62.8°F17.1°C 92% 1.3 mph SE2.1 kmh SE 5.0 mph8.0 kmh 30.15 in1021.0 mb 0.00 in0.0 mm 0.00 in0.0 mm 0.00 in0.0 mm
07:47 PM 65.1°F18.4°C 62.7°F17.1°C 92% 1.0 mph SE1.6 kmh SE 5.0 mph8.0 kmh 30.15 in1021.0 mb 0.00 in0.0 mm 0.00 in0.0 mm 0.00 in0.0 mm
07:52 PM 65.0°F18.3°C 62.9°F17.2°C 93% 1.8 mph SE2.9 kmh SE 3.0 mph4.8 kmh 30.15 in1021.0 mb 0.00 in0.0 mm 0.00 in0.0 mm 0.00 in0.0 mm
07:57 PM 64.9°F18.3°C 62.8°F17.1°C 93% 2.2 mph SE3.5 kmh SE 5.0 mph8.0 kmh 30.15 in1021.0 mb 0.00 in0.0 mm 0.00 in0.0 mm 0.00 in0.0 mm
08:03 PM 64.9°F18.3°C 62.8°F17.1°C 93% 1.8 mph SE2.9 kmh SE 5.0 mph8.0 kmh 30.14 in1020.7 mb 0.00 in0.0 mm 0.00 in0.0 mm 0.00 in0.0 mm
08:08 PM 64.8°F18.2°C 62.7°F17.1°C 93% 1.4 mph SE2.3 kmh SE 5.0 mph8.0 kmh 30.15 in1021.0 mb 0.00 in0.0 mm 0.00 in0.0 mm 0.00 in0.0 mm
08:13 PM 64.7°F18.2°C 62.6°F17.0°C 93% Calm Calm 4.0 mph6.4 kmh 30.15 in1021.0 mb 0.00 in0.0 mm 0.00 in0.0 mm 0.00 in0.0 mm
08:18 PM 64.6°F18.1°C 62.5°F16.9°C 93% 2.4 mph SE3.9 kmh SE 4.0 mph6.4 kmh 30.15 in1021.0 mb 0.00 in0.0 mm 0.00 in0.0 mm 0.00 in0.0 mm
08:23 PM 64.5°F18.1°C 62.7°F17.1°C 94% 1.0 mph E1.6 kmh E 4.0 mph6.4 kmh 30.15 in1021.0 mb 0.00 in0.0 mm 0.00 in0.0 mm 0.00 in0.0 mm
08:29 PM 64.4°F18.0°C 62.6°F17.0°C 94% 1.2 mph SE1.9 kmh SE 4.0 mph6.4 kmh 30.15 in1021.0 mb 0.00 in0.0 mm 0.00 in0.0 mm 0.00 in0.0 mm
08:34 PM 64.3°F17.9°C 62.5°F16.9°C 94% 1.0 mph E1.6 kmh E 4.0 mph6.4 kmh 30.15 in1021.0 mb 0.00 in0.0 mm 0.00 in0.0 mm 0.00 in0.0 mm
08:39 PM 64.2°F17.9°C 62.4°F16.9°C 94% Calm Calm 3.0 mph4.8 kmh 30.15 in1021.0 mb 0.00 in0.0 mm 0.00 in0.0 mm 0.00 in0.0 mm
08:44 PM 64.1°F17.8°C 62.3°F16.8°C 94% 1.0 mph SE1.6 kmh SE 3.0 mph4.8 kmh 30.16 in1021.3 mb 0.00 in0.0 mm 0.00 in0.0 mm 0.00 in0.0 mm
08:49 PM 64.1°F17.8°C 62.3°F16.8°C 94% 1.7 mph E2.7 kmh E 3.0 mph4.8 kmh 30.16 in1021.3 mb 0.00 in0.0 mm 0.00 in0.0 mm 0.00 in0.0 mm
08:55 PM 64.1°F17.8°C 62.3°F16.8°C 94% Calm Calm 3.0 mph4.8 kmh 30.16 in1021.3 mb 0.00 in0.0 mm 0.00 in0.0 mm 0.00 in0.0 mm
09:00 PM 64.0°F17.8°C 62.2°F16.8°C 94% Calm Calm 3.0 mph4.8 kmh 30.17 in1021.7 mb 0.00 in0.0 mm 0.00 in0.0 mm 0.00 in0.0 mm
09:05 PM 63.9°F17.7°C 62.1°F16.7°C 94% Calm Calm 3.0 mph4.8 kmh 30.17 in1021.7 mb 0.00 in0.0 mm 0.00 in0.0 mm 0.00 in0.0 mm
09:10 PM 63.9°F17.7°C 62.4°F16.9°C 95% 2.2 mph SE3.5 kmh SE 4.0 mph6.4 kmh 30.17 in1021.7 mb 0.00 in0.0 mm 0.00 in0.0 mm 0.00 in0.0 mm
09:15 PM 63.9°F17.7°C 62.4°F16.9°C 95% 1.1 mph SE1.8 kmh SE 4.0 mph6.4 kmh 30.17 in1021.7 mb 0.00 in0.0 mm 0.00 in0.0 mm 0.00 in0.0 mm
09:21 PM 63.9°F17.7°C 62.4°F16.9°C 95% 1.3 mph E2.1 kmh E 4.0 mph6.4 kmh 30.17 in1021.7 mb 0.00 in0.0 mm 0.00 in0.0 mm 0.00 in0.0 mm
09:26 PM 63.9°F17.7°C 62.4°F16.9°C 95% 1.6 mph SE2.6 kmh SE 5.0 mph8.0 kmh 30.17 in1021.7 mb 0.00 in0.0 mm 0.00 in0.0 mm 0.00 in0.0 mm
09:31 PM 63.9°F17.7°C 62.4°F16.9°C 95% 2.5 mph SE4.0 kmh SE 5.0 mph8.0 kmh 30.17 in1021.7 mb 0.00 in0.0 mm 0.00 in0.0 mm 0.00 in0.0 mm
09:36 PM 63.8°F17.7°C 62.3°F16.8°C 95% 1.0 mph E1.6 kmh E 5.0 mph8.0 kmh 30.17 in1021.7 mb 0.00 in0.0 mm 0.00 in0.0 mm 0.00 in0.0 mm
09:41 PM 63.9°F17.7°C 62.4°F16.9°C 95% 1.7 mph E2.7 kmh E 5.0 mph8.0 kmh 30.17 in1021.7 mb 0.00 in0.0 mm 0.00 in0.0 mm 0.00 in0.0 mm
09:47 PM 63.8°F17.7°C 62.6°F17.0°C 96% 1.9 mph SE3.1 kmh SE 5.0 mph8.0 kmh 30.17 in1021.7 mb 0.00 in0.0 mm 0.00 in0.0 mm 0.00 in0.0 mm
09:52 PM 63.8°F17.7°C 62.6°F17.0°C 96% 2.0 mph ESE3.2 kmh ESE 5.0 mph8.0 kmh 30.17 in1021.7 mb 0.00 in0.0 mm 0.00 in0.0 mm 0.00 in0.0 mm
09:57 PM 63.8°F17.7°C 62.6°F17.0°C 96% 1.5 mph SE2.4 kmh SE 5.0 mph8.0 kmh 30.17 in1021.7 mb 0.00 in0.0 mm 0.00 in0.0 mm 0.00 in0.0 mm
10:02 PM 63.8°F17.7°C 62.6°F17.0°C 96% 2.0 mph SE3.2 kmh SE 5.0 mph8.0 kmh 30.17 in1021.7 mb 0.00 in0.0 mm 0.00 in0.0 mm 0.00 in0.0 mm
10:07 PM 63.8°F17.7°C 62.6°F17.0°C 96% 1.5 mph SE2.4 kmh SE 5.0 mph8.0 kmh 30.17 in1021.7 mb 0.00 in0.0 mm 0.00 in0.0 mm 0.00 in0.0 mm
10:13 PM 63.8°F17.7°C 62.6°F17.0°C 96% 1.1 mph ESE1.8 kmh ESE 5.0 mph8.0 kmh 30.17 in1021.7 mb 0.00 in0.0 mm 0.00 in0.0 mm 0.00 in0.0 mm
10:18 PM 63.8°F17.7°C 62.6°F17.0°C 96% 1.0 mph ESE1.6 kmh ESE 5.0 mph8.0 kmh 30.16 in1021.3 mb 0.00 in0.0 mm 0.00 in0.0 mm 0.00 in0.0 mm
10:23 PM 63.8°F17.7°C 62.6°F17.0°C 96% 2.0 mph SE3.2 kmh SE 5.0 mph8.0 kmh 30.17 in1021.7 mb 0.00 in0.0 mm 0.00 in0.0 mm 0.00 in0.0 mm
10:28 PM 63.7°F17.6°C 62.5°F16.9°C 96% 1.4 mph SE2.3 kmh SE 4.0 mph6.4 kmh 30.17 in1021.7 mb 0.00 in0.0 mm 0.00 in0.0 mm 0.00 in0.0 mm
10:33 PM 63.7°F17.6°C 62.5°F16.9°C 96% 1.0 mph SE1.6 kmh SE 4.0 mph6.4 kmh 30.17 in1021.7 mb 0.00 in0.0 mm 0.00 in0.0 mm 0.00 in0.0 mm
10:39 PM 63.7°F17.6°C 62.5°F16.9°C 96% 2.6 mph SE4.2 kmh SE 5.0 mph8.0 kmh 30.17 in1021.7 mb 0.00 in0.0 mm 0.00 in0.0 mm 0.00 in0.0 mm
10:44 PM 63.7°F17.6°C 62.5°F16.9°C 96% 1.5 mph SSE2.4 kmh SSE 6.0 mph9.7 kmh 30.18 in1022.0 mb 0.00 in0.0 mm 0.00 in0.0 mm 0.00 in0.0 mm
10:49 PM 63.7°F17.6°C 62.5°F16.9°C 96% 2.3 mph SSE3.7 kmh SSE 6.0 mph9.7 kmh 30.18 in1022.0 mb 0.00 in0.0 mm 0.00 in0.0 mm 0.00 in0.0 mm
10:54 PM 63.7°F17.6°C 62.5°F16.9°C 96% 1.8 mph SE2.9 kmh SE 6.0 mph9.7 kmh 30.18 in1022.0 mb 0.00 in0.0 mm 0.00 in0.0 mm 0.00 in0.0 mm
10:59 PM 63.7°F17.6°C 62.5°F16.9°C 96% 1.4 mph SE2.3 kmh SE 6.0 mph9.7 kmh 30.18 in1022.0 mb 0.00 in0.0 mm 0.00 in0.0 mm 0.00 in0.0 mm
11:05 PM 63.7°F17.6°C 62.8°F17.1°C 97% 1.9 mph SE3.1 kmh SE 6.0 mph9.7 kmh 30.18 in1022.0 mb 0.00 in0.0 mm 0.00 in0.0 mm 0.00 in0.0 mm
11:10 PM 63.7°F17.6°C 62.8°F17.1°C 97% 2.2 mph SE3.5 kmh SE 6.0 mph9.7 kmh 30.17 in1021.7 mb 0.00 in0.0 mm 0.00 in0.0 mm 0.00 in0.0 mm
11:15 PM 63.7°F17.6°C 62.8°F17.1°C 97% 1.5 mph SE2.4 kmh SE 6.0 mph9.7 kmh 30.18 in1022.0 mb 0.00 in0.0 mm 0.00 in0.0 mm 0.00 in0.0 mm
11:20 PM 63.7°F17.6°C 62.8°F17.1°C 97% 1.0 mph SE1.6 kmh SE 5.0 mph8.0 kmh 30.17 in1021.7 mb 0.00 in0.0 mm 0.00 in0.0 mm 0.00 in0.0 mm
11:25 PM 63.7°F17.6°C 62.8°F17.1°C 97% 1.1 mph SE1.8 kmh SE 5.0 mph8.0 kmh 30.17 in1021.7 mb 0.00 in0.0 mm 0.00 in0.0 mm 0.00 in0.0 mm
11:31 PM 63.7°F17.6°C 62.8°F17.1°C 97% 1.8 mph SE2.9 kmh SE 4.0 mph6.4 kmh 30.17 in1021.7 mb 0.00 in0.0 mm 0.00 in0.0 mm 0.00 in0.0 mm
11:36 PM 63.7°F17.6°C 62.8°F17.1°C 97% 1.2 mph SE1.9 kmh SE 4.0 mph6.4 kmh 30.17 in1021.7 mb 0.00 in0.0 mm 0.00 in0.0 mm 0.00 in0.0 mm
11:41 PM 63.7°F17.6°C 62.8°F17.1°C 97% 1.0 mph ESE1.6 kmh ESE 4.0 mph6.4 kmh 30.18 in1022.0 mb 0.00 in0.0 mm 0.00 in0.0 mm 0.00 in0.0 mm
11:46 PM 63.7°F17.6°C 62.8°F17.1°C 97% 1.0 mph SE1.6 kmh SE 4.0 mph6.4 kmh 30.18 in1022.0 mb 0.00 in0.0 mm 0.00 in0.0 mm 0.00 in0.0 mm
11:51 PM 63.7°F17.6°C 62.8°F17.1°C 97% 1.6 mph SE2.6 kmh SE 2.0 mph3.2 kmh 30.18 in1022.0 mb 0.00 in0.0 mm 0.00 in0.0 mm 0.00 in0.0 mm
11:57 PM 63.7°F17.6°C 62.8°F17.1°C 97% 1.0 mph SE1.6 kmh SE 2.0 mph3.2 kmh 30.18 in1022.0 mb 0.00 in0.0 mm 0.00 in0.0 mm 0.00 in0.0 mm